createdAt,value
2019-05-30T00:00:27.503Z,0.00
2019-05-30T00:01:25.978Z,0.00
2019-05-30T00:02:28.036Z,0.00
2019-05-30T00:03:28.015Z,0.00
2019-05-30T00:04:28.474Z,0.00
2019-05-30T00:05:34.481Z,0.00
2019-05-30T00:06:28.481Z,0.00
2019-05-30T00:07:27.052Z,0.00
2019-05-30T00:08:29.282Z,0.00
2019-05-30T00:09:28.369Z,0.00
2019-05-30T00:10:27.576Z,0.00
2019-05-30T00:11:28.827Z,0.00
2019-05-30T00:12:27.902Z,0.00
2019-05-30T00:13:30.041Z,0.00
2019-05-30T00:14:28.248Z,0.00
2019-05-30T00:15:31.975Z,0.00
2019-05-30T00:16:30.495Z,0.00
2019-05-30T00:17:28.811Z,0.00
2019-05-30T00:18:29.067Z,0.00
2019-05-30T00:19:34.999Z,0.00
2019-05-30T00:20:29.313Z,0.00
2019-05-30T00:21:29.524Z,0.00
2019-05-30T00:22:37.491Z,0.00
2019-05-30T00:23:30.945Z,0.00
2019-05-30T00:24:33.975Z,0.00
2019-05-30T00:25:33.978Z,0.00
2019-05-30T00:26:31.452Z,0.00
2019-05-30T00:27:32.482Z,0.00
2019-05-30T00:28:30.826Z,0.00
2019-05-30T00:29:30.926Z,0.00
2019-05-30T00:30:32.981Z,0.00
2019-05-30T00:31:31.298Z,0.00
2019-05-30T00:32:31.511Z,0.00
2019-05-30T00:33:32.668Z,0.00
2019-05-30T00:34:31.885Z,0.00
2019-05-30T00:35:32.102Z,0.00
2019-05-30T00:36:34.022Z,0.00
2019-05-30T00:37:32.521Z,0.00
2019-05-30T00:38:34.477Z,0.00
2019-05-30T00:39:32.803Z,0.00
2019-05-30T00:40:36.002Z,0.00
2019-05-30T00:41:34.996Z,0.00
2019-05-30T00:42:33.322Z,0.00
2019-05-30T00:43:33.535Z,0.00
2019-05-30T00:44:33.748Z,0.00
2019-05-30T00:45:35.483Z,0.00
2019-05-30T00:46:35.998Z,0.00
2019-05-30T00:47:35.975Z,0.00
2019-05-30T00:48:36.019Z,0.00
2019-05-30T00:49:36.481Z,0.00
2019-05-30T00:50:34.848Z,0.00
2019-05-30T00:51:34.922Z,0.00
2019-05-30T00:52:36.157Z,0.00
2019-05-30T00:53:35.245Z,0.00
2019-05-30T00:54:37.010Z,0.00
2019-05-30T00:55:37.514Z,0.00
2019-05-30T00:56:37.481Z,0.00
2019-05-30T00:57:39.476Z,0.00
2019-05-30T00:58:37.973Z,0.00
2019-05-30T00:59:36.169Z,0.00
2019-05-30T01:00:43.643Z,0.00
2019-05-30T01:01:38.483Z,0.00
2019-05-30T01:02:36.811Z,0.00
2019-05-30T01:03:37.106Z,0.00
2019-05-30T01:04:37.349Z,0.00
2019-05-30T01:05:39.042Z,0.00
2019-05-30T01:06:41.537Z,0.00
2019-05-30T01:07:39.486Z,0.00
2019-05-30T01:08:41.998Z,0.00
2019-05-30T01:09:42.984Z,0.00
2019-05-30T01:10:38.321Z,0.00
2019-05-30T01:11:38.527Z,0.00
2019-05-30T01:12:40.509Z,0.00
2019-05-30T01:13:38.962Z,0.00
2019-05-30T01:14:40.999Z,0.00
2019-05-30T01:15:39.343Z,0.00
2019-05-30T01:16:42.559Z,0.00
2019-05-30T01:17:39.696Z,0.00
2019-05-30T01:18:42.516Z,0.00
2019-05-30T01:19:40.099Z,0.00
2019-05-30T01:20:41.978Z,0.00
2019-05-30T01:21:41.994Z,0.00
2019-05-30T01:22:42.490Z,0.00
2019-05-30T01:23:42.476Z,0.00
2019-05-30T01:24:40.807Z,0.00
2019-05-30T01:25:43.023Z,0.00
2019-05-30T01:26:42.985Z,0.00
2019-05-30T01:27:41.303Z,0.00
2019-05-30T01:28:43.484Z,0.00
2019-05-30T01:29:42.673Z,0.00
2019-05-30T01:30:56.835Z,0.00
2019-05-30T01:31:44.000Z,0.00
2019-05-30T01:32:49.027Z,0.00
2019-05-30T01:33:43.981Z,0.00
2019-05-30T01:34:42.443Z,0.00
2019-05-30T01:35:42.639Z,0.00
2019-05-30T01:36:42.872Z,0.00
2019-05-30T01:37:50.483Z,0.00
2019-05-30T01:38:43.175Z,0.00
2019-05-30T01:39:44.387Z,0.00
2019-05-30T01:40:47.474Z,0.00
2019-05-30T01:41:43.805Z,0.00
2019-05-30T01:42:44.007Z,0.00
2019-05-30T01:43:45.217Z,0.00
2019-05-30T01:44:44.439Z,0.00
2019-05-30T01:45:44.671Z,0.00
2019-05-30T01:46:48.504Z,0.00
2019-05-30T01:47:58.172Z,0.00
2019-05-30T01:48:46.994Z,0.00
2019-05-30T01:49:45.340Z,0.00
2019-05-30T01:50:47.505Z,0.00
2019-05-30T01:51:45.775Z,0.00
2019-05-30T01:52:47.481Z,0.00
2019-05-30T01:53:46.098Z,0.00
2019-05-30T01:54:46.267Z,0.00
2019-05-30T01:55:48.770Z,0.00
2019-05-30T01:56:46.752Z,0.00
2019-05-30T01:57:46.882Z,0.00
2019-05-30T01:58:48.099Z,0.00
2019-05-30T01:59:48.991Z,0.00
2019-05-30T02:00:47.448Z,0.00
2019-05-30T02:01:49.493Z,0.00
2019-05-30T02:02:47.870Z,0.00
2019-05-30T02:03:49.991Z,0.00
2019-05-30T02:04:48.224Z,0.00
2019-05-30T02:05:50.008Z,0.00
2019-05-30T02:06:52.504Z,0.00
2019-05-30T02:07:48.715Z,0.00
2019-05-30T02:08:50.516Z,0.00
2019-05-30T02:09:49.084Z,0.00
2019-05-30T02:10:49.279Z,0.00
2019-05-30T02:11:49.501Z,0.00
2019-05-30T02:12:49.700Z,0.00
2019-05-30T02:13:53.507Z,0.00
2019-05-30T02:14:50.081Z,0.00
2019-05-30T02:15:51.997Z,0.00
2019-05-30T02:16:50.319Z,0.00
2019-05-30T02:17:50.531Z,0.00
2019-05-30T02:18:52.480Z,0.00
2019-05-30T02:19:54.511Z,0.00
2019-05-30T02:20:51.118Z,0.00
2019-05-30T02:21:51.315Z,0.00
2019-05-30T02:22:51.520Z,0.00
2019-05-30T02:23:53.146Z,0.00
2019-05-30T02:24:53.545Z,0.00
2019-05-30T02:25:58.035Z,0.00
2019-05-30T02:26:54.703Z,0.00
2019-05-30T02:27:52.440Z,0.00
2019-05-30T02:28:54.494Z,0.00
2019-05-30T02:29:53.730Z,0.00
2019-05-30T02:30:52.789Z,0.00
2019-05-30T02:31:54.987Z,0.00
2019-05-30T02:32:55.131Z,0.00
2019-05-30T02:33:53.325Z,4.00
2019-05-30T02:34:55.011Z,4.00
2019-05-30T02:35:53.600Z,4.00
2019-05-30T02:36:53.801Z,0.00
2019-05-30T02:37:55.981Z,4.00
2019-05-30T02:38:55.995Z,4.00
2019-05-30T02:40:00.234Z,4.00
2019-05-30T02:40:54.450Z,4.00
2019-05-30T02:41:56.481Z,4.00
2019-05-30T02:42:56.486Z,4.00
2019-05-30T02:43:56.495Z,8.00
2019-05-30T02:44:56.074Z,8.00
2019-05-30T02:45:55.289Z,12.00
2019-05-30T02:46:56.516Z,12.00
2019-05-30T02:47:56.725Z,12.00
2019-05-30T02:49:00.405Z,12.00
2019-05-30T02:49:56.077Z,16.00
2019-05-30T02:50:57.988Z,16.00
2019-05-30T02:51:56.365Z,20.00
2019-05-30T02:53:13.268Z,20.00
2019-05-30T02:54:01.543Z,24.00
2019-05-30T02:54:56.801Z,28.00
2019-05-30T02:55:57.016Z,32.00
2019-05-30T02:56:57.221Z,36.00
2019-05-30T02:57:57.464Z,44.00
2019-05-30T02:58:57.636Z,48.00
2019-05-30T02:59:59.509Z,56.00
2019-05-30T03:00:59.498Z,60.00
2019-05-30T03:02:04.380Z,68.00
2019-05-30T03:03:08.690Z,80.00
2019-05-30T03:04:03.911Z,88.00
2019-05-30T03:04:58.681Z,96.00
2019-05-30T03:05:58.883Z,108.00
2019-05-30T03:07:04.089Z,124.00
2019-05-30T03:08:04.466Z,136.00
2019-05-30T03:09:01.906Z,152.00
2019-05-30T03:10:04.427Z,172.00
2019-05-30T03:11:02.428Z,188.00
2019-05-30T03:12:04.073Z,208.00
2019-05-30T03:13:01.738Z,224.00
2019-05-30T03:14:02.653Z,244.00
2019-05-30T03:15:02.578Z,264.00
2019-05-30T03:16:02.188Z,284.00
2019-05-30T03:17:02.580Z,308.00
2019-05-30T03:18:04.468Z,336.00
2019-05-30T03:19:03.724Z,360.00
2019-05-30T03:20:04.942Z,392.00
2019-05-30T03:21:05.446Z,424.00
2019-05-30T03:22:03.379Z,456.00
2019-05-30T03:23:05.772Z,492.00
2019-05-30T03:24:05.061Z,528.00
2019-05-30T03:25:03.525Z,568.00
2019-05-30T03:26:04.754Z,604.00
2019-05-30T03:27:04.800Z,644.00
2019-05-30T03:28:11.827Z,684.00
2019-05-30T03:29:05.060Z,728.00
2019-05-30T03:30:15.834Z,772.00
2019-05-30T03:31:10.438Z,816.00
2019-05-30T03:32:38.922Z,860.00
2019-05-30T03:33:16.417Z,908.00
2019-05-30T03:34:13.628Z,956.00
2019-05-30T03:35:11.046Z,1008.00
2019-05-30T03:36:17.952Z,1052.00
2019-05-30T03:37:08.675Z,1104.00
2019-05-30T03:38:08.124Z,1156.00
2019-05-30T03:39:07.676Z,1200.00
2019-05-30T03:40:06.988Z,1256.00
2019-05-30T03:41:09.111Z,1304.00
2019-05-30T03:42:07.046Z,1360.00
2019-05-30T03:43:06.086Z,1412.00
2019-05-30T03:44:10.781Z,1468.00
2019-05-30T03:45:10.727Z,1544.00
2019-05-30T03:46:08.736Z,1616.00
2019-05-30T03:47:08.717Z,1684.00
2019-05-30T03:48:07.397Z,1756.00
2019-05-30T03:49:08.685Z,1824.00
2019-05-30T03:50:09.781Z,1880.00
2019-05-30T03:51:08.879Z,1928.00
2019-05-30T03:52:09.745Z,1968.00
2019-05-30T03:53:09.906Z,2016.00
2019-05-30T03:54:11.601Z,2052.00
2019-05-30T03:55:09.956Z,2084.00
2019-05-30T03:56:09.362Z,2108.00
2019-05-30T03:57:11.395Z,2140.00
2019-05-30T03:58:10.668Z,2180.00
2019-05-30T03:59:10.795Z,2220.00
2019-05-30T04:00:11.839Z,2268.00
2019-05-30T04:01:09.983Z,2320.00
2019-05-30T04:02:11.750Z,2388.00
2019-05-30T04:03:10.934Z,2464.00
2019-05-30T04:04:11.601Z,2532.00
2019-05-30T04:05:11.271Z,2604.00
2019-05-30T04:06:10.272Z,2676.00
2019-05-30T04:07:11.969Z,2748.00
2019-05-30T04:08:13.689Z,2812.00
2019-05-30T04:09:11.880Z,2868.00
2019-05-30T04:10:11.425Z,2928.00
2019-05-30T04:11:16.603Z,2988.00
2019-05-30T04:12:12.724Z,3040.00
2019-05-30T04:13:15.252Z,3096.00
2019-05-30T04:14:13.104Z,3160.00
2019-05-30T04:15:14.420Z,3232.00
2019-05-30T04:16:14.117Z,3316.00
2019-05-30T04:17:13.585Z,3388.00
2019-05-30T04:18:12.542Z,3456.00
2019-05-30T04:19:15.494Z,3512.00
2019-05-30T04:20:14.302Z,3572.00
2019-05-30T04:21:18.704Z,3628.00
2019-05-30T04:22:16.481Z,3692.00
2019-05-30T04:23:14.677Z,3748.00
2019-05-30T04:24:17.035Z,3804.00
2019-05-30T04:25:14.408Z,3864.00
2019-05-30T04:26:18.151Z,3936.00
2019-05-30T04:27:13.899Z,3988.00
2019-05-30T04:28:14.133Z,4036.00
2019-05-30T04:29:16.643Z,4080.00
2019-05-30T04:30:14.497Z,4136.00
2019-05-30T04:31:14.588Z,4196.00
2019-05-30T04:32:26.192Z,4272.00
2019-05-30T04:33:26.982Z,4356.00
2019-05-30T04:34:15.333Z,4456.00
2019-05-30T04:35:16.626Z,4552.00
2019-05-30T04:36:16.846Z,4664.00
2019-05-30T04:37:17.013Z,4776.00
2019-05-30T04:38:17.201Z,4880.00
2019-05-30T04:39:17.199Z,4984.00
2019-05-30T04:40:17.681Z,5116.00
2019-05-30T04:41:18.719Z,5248.00
2019-05-30T04:42:18.143Z,5356.00
2019-05-30T04:43:18.020Z,5456.00
2019-05-30T04:44:20.171Z,5560.00
2019-05-30T04:45:20.234Z,5656.00
2019-05-30T04:46:19.088Z,5768.00
2019-05-30T04:47:18.508Z,5880.00
2019-05-30T04:48:21.321Z,5980.00
2019-05-30T04:49:21.521Z,6088.00
2019-05-30T04:50:18.820Z,6208.00
2019-05-30T04:51:21.709Z,6316.00
2019-05-30T04:52:22.666Z,6408.00
2019-05-30T04:53:18.597Z,6516.00
2019-05-30T04:54:22.486Z,6624.00
2019-05-30T04:55:21.051Z,6748.00
2019-05-30T04:56:19.768Z,6868.00
2019-05-30T04:57:25.188Z,6992.00
2019-05-30T04:58:23.308Z,7116.00
2019-05-30T04:59:20.320Z,7248.00
2019-05-30T05:00:21.297Z,7376.00
2019-05-30T05:01:21.977Z,7504.00
2019-05-30T05:02:21.201Z,7624.00
2019-05-30T05:03:43.415Z,7736.00
2019-05-30T05:04:21.646Z,7868.00
2019-05-30T05:05:26.520Z,8000.00
2019-05-30T05:06:21.972Z,8156.00
2019-05-30T05:07:24.024Z,8228.00
2019-05-30T05:08:22.124Z,8300.00
2019-05-30T05:09:25.484Z,8444.00
2019-05-30T05:10:22.532Z,8532.00
2019-05-30T05:11:25.076Z,8596.00
2019-05-30T05:12:22.466Z,8644.00
2019-05-30T05:13:23.983Z,8668.00
2019-05-30T05:14:23.981Z,8780.00
2019-05-30T05:15:22.854Z,8928.00
2019-05-30T05:16:33.897Z,8972.00
2019-05-30T05:17:23.173Z,9028.00
2019-05-30T05:18:23.531Z,9176.00
2019-05-30T05:19:26.218Z,9412.00
2019-05-30T05:20:23.642Z,9804.00
2019-05-30T05:21:23.782Z,11160.00
2019-05-30T05:22:27.486Z,14824.00
2019-05-30T05:23:24.205Z,18176.00
2019-05-30T05:24:24.417Z,18624.00
2019-05-30T05:25:24.675Z,17536.00
2019-05-30T05:26:26.484Z,17440.00
2019-05-30T05:27:24.931Z,18432.00
2019-05-30T05:28:25.140Z,18400.00
2019-05-30T05:29:25.369Z,19168.00
2019-05-30T05:30:25.594Z,18624.00
2019-05-30T05:31:25.762Z,18048.00
2019-05-30T05:32:25.971Z,18368.00
2019-05-30T05:33:27.983Z,18528.00
2019-05-30T05:34:26.306Z,19456.00
2019-05-30T05:35:26.522Z,20640.00
2019-05-30T05:36:26.740Z,18720.00
2019-05-30T05:37:27.382Z,15016.00
2019-05-30T05:38:28.406Z,13124.00
2019-05-30T05:39:28.364Z,12660.00
2019-05-30T05:40:29.485Z,12456.00
2019-05-30T05:41:28.618Z,12020.00
2019-05-30T05:42:30.299Z,11264.00
2019-05-30T05:43:28.702Z,10904.00
2019-05-30T05:44:28.714Z,11000.00
2019-05-30T05:45:28.811Z,11108.00
2019-05-30T05:46:30.487Z,11356.00
2019-05-30T05:47:28.963Z,11548.00
2019-05-30T05:48:29.155Z,11824.00
2019-05-30T05:49:29.375Z,12076.00
2019-05-30T05:50:29.578Z,12232.00
2019-05-30T05:51:29.872Z,12276.00
2019-05-30T05:52:29.950Z,12468.00
2019-05-30T05:53:30.163Z,12600.00
2019-05-30T05:54:30.387Z,12780.00
2019-05-30T05:55:30.595Z,12848.00
2019-05-30T05:56:30.804Z,12964.00
2019-05-30T05:57:31.007Z,13040.00
2019-05-30T05:58:31.228Z,13532.00
2019-05-30T05:59:31.460Z,13828.00
2019-05-30T06:00:31.659Z,14000.00
2019-05-30T06:01:31.873Z,14280.00
2019-05-30T06:02:34.012Z,14564.00
2019-05-30T06:03:35.031Z,14860.00
2019-05-30T06:04:32.378Z,15172.00
2019-05-30T06:05:34.540Z,15400.00
2019-05-30T06:06:36.521Z,15620.00
2019-05-30T06:07:32.976Z,15804.00
2019-05-30T06:08:33.197Z,16060.00
2019-05-30T06:09:33.474Z,16336.00
2019-05-30T06:10:33.529Z,16580.00
2019-05-30T06:11:41.517Z,16844.00
2019-05-30T06:12:37.486Z,17120.00
2019-05-30T06:13:34.062Z,16860.00
2019-05-30T06:14:34.276Z,16624.00
2019-05-30T06:15:34.490Z,16464.00
2019-05-30T06:16:34.694Z,16480.00
2019-05-30T06:17:34.961Z,16452.00
2019-05-30T06:18:40.057Z,16928.00
2019-05-30T06:19:45.908Z,17056.00
2019-05-30T06:20:35.553Z,17280.00
2019-05-30T06:21:51.064Z,17568.00
2019-05-30T06:23:00.711Z,18080.00
2019-05-30T06:23:37.021Z,20384.00
2019-05-30T06:24:36.251Z,25280.00
2019-05-30T06:25:36.486Z,31136.00
2019-05-30T06:26:38.516Z,38272.00
2019-05-30T06:27:36.762Z,43392.00
2019-05-30T06:28:38.565Z,46144.00
2019-05-30T06:29:39.015Z,46784.00
2019-05-30T06:30:39.442Z,45344.00
2019-05-30T06:31:59.575Z,46144.00
2019-05-30T06:33:02.566Z,46144.00
2019-05-30T06:33:37.900Z,47680.00
2019-05-30T06:34:39.547Z,50240.00
2019-05-30T06:35:42.203Z,49184.00
2019-05-30T06:39:49.839Z,51200.00
2019-05-30T06:42:17.598Z,50944.00
2019-05-30T06:43:17.072Z,52480.00
2019-05-30T06:44:17.043Z,54432.00
2019-05-30T06:45:17.542Z,55264.00
2019-05-30T06:46:22.116Z,55104.00
2019-05-30T06:47:17.620Z,53632.00
2019-05-30T06:48:18.203Z,51968.00
2019-05-30T06:49:18.158Z,53568.00
2019-05-30T06:50:18.125Z,56320.00
2019-05-30T06:51:18.596Z,56704.00
2019-05-30T06:52:17.020Z,55232.00
2019-05-30T06:53:18.164Z,52960.00
2019-05-30T06:54:18.516Z,51040.00
2019-05-30T06:55:19.118Z,50368.00
2019-05-30T06:56:21.571Z,52256.00
2019-05-30T06:57:19.625Z,53024.00
2019-05-30T06:58:19.068Z,55424.00
2019-05-30T06:59:41.967Z,55776.00
2019-05-30T07:00:20.088Z,57024.00
2019-05-30T07:01:21.836Z,59328.00
2019-05-30T07:02:18.955Z,63104.00
2019-05-30T07:03:19.071Z,66528.00
2019-05-30T07:04:19.557Z,67616.00
2019-05-30T07:05:23.054Z,66528.00
2019-05-30T07:06:20.137Z,67200.00
2019-05-30T07:07:25.036Z,68768.00
2019-05-30T07:08:21.058Z,65696.00
2019-05-30T07:09:20.217Z,62528.00
2019-05-30T07:10:22.605Z,58176.00
2019-05-30T07:11:24.709Z,53184.00
2019-05-30T07:12:22.808Z,50720.00
2019-05-30T07:13:23.267Z,49280.00
2019-05-30T07:14:25.276Z,48832.00
2019-05-30T07:15:21.199Z,50112.00
2019-05-30T07:16:23.582Z,49856.00
2019-05-30T07:17:25.254Z,45408.00
2019-05-30T07:18:21.634Z,36032.00
2019-05-30T07:19:23.578Z,44032.00
2019-05-30T07:20:23.593Z,47584.00
2019-05-30T07:21:23.483Z,53984.00
2019-05-30T07:22:23.473Z,39808.00
2019-05-30T07:23:25.757Z,43584.00
2019-05-30T07:24:25.615Z,61536.00
2019-05-30T07:25:38.625Z,45312.00
2019-05-30T07:26:26.013Z,67072.00
2019-05-30T07:27:26.044Z,56960.00
2019-05-30T07:28:25.732Z,74496.00
2019-05-30T07:29:28.015Z,70816.00
2019-05-30T07:30:25.872Z,52320.00
2019-05-30T07:31:24.204Z,58880.00
2019-05-30T07:32:24.281Z,75680.00
2019-05-30T07:33:45.573Z,57056.00
2019-05-30T07:34:48.619Z,71008.00
2019-05-30T07:35:27.964Z,80800.00
2019-05-30T07:36:28.523Z,85664.00
2019-05-30T07:37:30.196Z,72160.00
2019-05-30T07:38:27.074Z,88160.00
2019-05-30T07:39:41.845Z,83392.00
2019-05-30T07:40:28.695Z,83296.00
2019-05-30T07:41:26.859Z,84480.00
2019-05-30T07:42:26.563Z,82784.00
2019-05-30T07:43:29.939Z,86624.00
2019-05-30T07:44:29.081Z,86816.00
2019-05-30T07:45:26.841Z,88160.00
2019-05-30T07:46:27.026Z,88416.00
2019-05-30T07:47:28.248Z,89984.00
2019-05-30T07:48:30.086Z,90080.00
2019-05-30T07:49:30.408Z,88224.00
2019-05-30T07:50:30.464Z,88288.00
2019-05-30T07:51:28.496Z,89344.00
2019-05-30T07:52:32.623Z,90144.00
2019-05-30T07:53:31.019Z,89696.00
2019-05-30T07:54:33.532Z,89312.00
2019-05-30T07:55:31.018Z,89088.00
2019-05-30T07:56:31.017Z,86336.00
2019-05-30T07:57:29.986Z,82624.00
2019-05-30T07:58:33.449Z,90208.00
2019-05-30T07:59:30.326Z,90240.00
2019-05-30T08:00:31.418Z,88576.00
2019-05-30T08:01:32.561Z,91040.00
2019-05-30T08:02:33.676Z,92448.00
2019-05-30T08:03:34.701Z,92992.00
2019-05-30T08:04:32.573Z,93536.00
2019-05-30T08:05:32.655Z,93152.00
2019-05-30T08:06:32.101Z,93312.00
2019-05-30T08:07:36.671Z,93440.00
2019-05-30T08:08:32.477Z,93696.00
2019-05-30T08:09:31.314Z,93504.00
2019-05-30T08:10:38.173Z,92992.00
2019-05-30T08:11:31.549Z,94368.00
2019-05-30T08:12:34.125Z,96608.00
2019-05-30T08:13:35.260Z,97920.00
2019-05-30T08:14:33.568Z,97248.00
2019-05-30T08:15:33.476Z,96128.00
2019-05-30T08:16:35.373Z,94752.00
2019-05-30T08:17:33.691Z,95552.00
2019-05-30T08:18:35.753Z,93088.00
2019-05-30T08:19:34.305Z,96704.00
2019-05-30T08:20:34.314Z,99040.00
2019-05-30T08:21:38.072Z,100448.00
2019-05-30T08:22:36.171Z,55520.00
2019-05-30T08:23:34.231Z,32576.00
2019-05-30T08:24:49.568Z,97600.00
2019-05-30T08:25:38.496Z,90720.00
2019-05-30T08:26:36.408Z,101376.00
2019-05-30T08:27:36.403Z,89408.00
2019-05-30T08:28:34.670Z,100960.00
2019-05-30T08:29:34.895Z,101632.00
2019-05-30T08:30:37.094Z,103488.00
2019-05-30T08:31:36.885Z,98176.00
2019-05-30T08:32:43.024Z,102624.00
2019-05-30T08:33:37.639Z,106464.00
2019-05-30T08:34:37.133Z,27520.00
2019-05-30T08:35:46.903Z,86496.00
2019-05-30T08:36:40.072Z,75232.00
2019-05-30T08:37:37.323Z,116160.00
2019-05-30T08:38:39.534Z,23264.00
2019-05-30T08:39:37.393Z,20000.00
2019-05-30T08:40:39.574Z,116544.00
2019-05-30T08:41:39.538Z,102112.00
2019-05-30T08:42:40.268Z,31520.00
2019-05-30T08:43:39.771Z,114976.00
2019-05-30T08:44:40.148Z,39744.00
2019-05-30T08:45:41.593Z,106496.00
2019-05-30T08:46:38.094Z,112192.00
2019-05-30T08:47:40.628Z,109440.00
2019-05-30T08:48:40.651Z,110624.00
2019-05-30T08:49:45.071Z,109920.00
2019-05-30T08:50:44.751Z,109344.00
2019-05-30T08:51:40.493Z,108416.00
2019-05-30T08:52:41.197Z,109216.00
2019-05-30T08:53:40.678Z,103936.00
2019-05-30T08:54:41.579Z,105504.00
2019-05-30T08:55:41.593Z,102016.00
2019-05-30T08:56:40.677Z,50496.00
2019-05-30T08:57:42.147Z,105664.00
2019-05-30T08:58:44.144Z,112832.00
2019-05-30T08:59:44.699Z,114080.00
2019-05-30T09:00:42.868Z,56992.00
2019-05-30T09:01:56.683Z,105408.00
2019-05-30T09:02:41.184Z,97728.00
2019-05-30T09:03:44.147Z,34784.00
2019-05-30T09:04:43.979Z,24384.00
2019-05-30T09:05:58.156Z,19616.00
2019-05-30T09:06:44.591Z,29856.00
2019-05-30T09:07:44.490Z,113088.00
2019-05-30T09:08:58.128Z,67136.00
2019-05-30T09:09:49.610Z,113120.00
2019-05-30T09:10:46.845Z,114208.00
2019-05-30T09:11:48.118Z,20960.00
2019-05-30T09:12:49.479Z,20032.00
2019-05-30T09:13:44.682Z,113632.00
2019-05-30T09:14:46.844Z,106208.00
2019-05-30T09:15:46.968Z,24896.00
2019-05-30T09:16:46.583Z,114592.00
2019-05-30T09:17:44.809Z,21600.00
2019-05-30T09:18:47.294Z,21984.00
2019-05-30T09:19:51.594Z,117888.00
2019-05-30T09:20:47.434Z,50144.00
2019-05-30T09:21:47.484Z,20448.00
2019-05-30T09:22:45.595Z,21728.00
2019-05-30T09:23:46.207Z,117760.00
2019-05-30T09:24:47.948Z,23168.00
2019-05-30T09:25:49.412Z,24960.00
2019-05-30T09:26:50.309Z,118432.00
2019-05-30T09:27:48.365Z,105600.00
2019-05-30T09:28:48.285Z,26016.00
2019-05-30T09:29:50.126Z,20704.00
2019-05-30T09:30:49.608Z,17536.00
2019-05-30T09:31:48.770Z,18176.00
2019-05-30T09:32:50.045Z,20096.00
2019-05-30T09:33:49.059Z,19456.00
2019-05-30T09:34:50.136Z,17696.00
2019-05-30T09:35:49.108Z,19232.00
2019-05-30T09:36:49.544Z,13888.00
2019-05-30T09:37:50.079Z,13752.00
2019-05-30T09:38:50.142Z,77568.00
2019-05-30T09:39:49.447Z,27680.00
2019-05-30T09:40:50.641Z,15528.00
2019-05-30T09:41:52.602Z,16416.00
2019-05-30T09:42:50.922Z,101440.00
2019-05-30T09:43:51.408Z,35008.00
2019-05-30T09:45:14.090Z,18016.00
2019-05-30T09:45:51.646Z,44832.00
2019-05-30T09:46:51.292Z,67584.00
2019-05-30T09:47:52.557Z,17312.00
2019-05-30T09:48:53.053Z,16160.00
2019-05-30T09:49:52.136Z,11612.00
2019-05-30T09:50:51.503Z,11456.00
2019-05-30T09:51:55.629Z,13988.00
2019-05-30T09:52:55.679Z,30272.00
2019-05-30T09:53:54.925Z,52320.00
2019-05-30T09:55:07.085Z,46688.00
2019-05-30T09:55:54.099Z,44544.00
2019-05-30T09:56:58.084Z,48320.00
2019-05-30T09:59:29.935Z,28128.00
2019-05-30T10:00:25.184Z,24736.00
2019-05-30T10:01:26.001Z,19808.00
2019-05-30T10:02:28.394Z,21408.00
2019-05-30T10:03:28.435Z,52000.00
2019-05-30T10:04:26.926Z,60096.00
2019-05-30T10:05:33.008Z,77344.00
2019-05-30T10:06:29.520Z,100192.00
2019-05-30T10:07:26.434Z,104768.00
2019-05-30T10:08:27.452Z,101824.00
2019-05-30T10:09:25.661Z,55072.00
2019-05-30T10:10:25.905Z,72032.00
2019-05-30T10:11:28.891Z,43072.00
2019-05-30T10:12:30.907Z,39360.00
2019-05-30T10:13:26.397Z,40256.00
2019-05-30T10:14:28.450Z,40256.00
2019-05-30T10:15:28.439Z,54784.00
2019-05-30T10:16:30.959Z,57888.00
2019-05-30T10:17:30.095Z,44192.00
2019-05-30T10:18:44.257Z,56544.00
2019-05-30T10:19:27.620Z,42304.00
2019-05-30T10:20:27.830Z,32384.00
2019-05-30T10:21:39.045Z,30272.00
2019-05-30T10:22:28.902Z,34016.00
2019-05-30T10:23:28.378Z,61632.00
2019-05-30T10:24:28.591Z,39744.00
2019-05-30T10:25:28.801Z,55456.00
2019-05-30T10:26:33.665Z,31200.00
2019-05-30T10:27:29.908Z,29248.00
2019-05-30T10:28:35.959Z,42656.00
2019-05-30T10:29:29.610Z,82080.00
2019-05-30T10:30:31.447Z,71968.00
2019-05-30T10:31:32.417Z,108928.00
2019-05-30T10:32:32.531Z,30336.00
2019-05-30T10:33:33.689Z,47712.00
2019-05-30T10:34:30.514Z,59040.00
2019-05-30T10:35:34.454Z,67200.00
2019-05-30T10:36:43.834Z,42336.00
2019-05-30T10:37:34.013Z,44288.00
2019-05-30T10:38:33.307Z,50816.00
2019-05-30T10:39:36.412Z,39616.00
2019-05-30T10:40:32.685Z,37600.00
2019-05-30T10:41:32.487Z,44576.00
2019-05-30T10:42:33.947Z,35616.00
2019-05-30T10:43:33.947Z,39168.00
2019-05-30T10:44:32.316Z,38272.00
2019-05-30T10:45:34.476Z,38112.00
2019-05-30T10:46:38.399Z,39744.00
2019-05-30T10:47:36.441Z,42944.00
2019-05-30T10:48:36.954Z,44480.00
2019-05-30T10:49:35.329Z,42720.00
2019-05-30T10:50:46.897Z,48160.00
2019-05-30T10:51:40.448Z,42240.00
2019-05-30T10:52:55.622Z,32032.00
2019-05-30T10:53:37.201Z,33792.00
2019-05-30T10:54:41.961Z,25472.00
2019-05-30T10:55:34.336Z,23712.00
2019-05-30T10:56:34.437Z,22912.00
2019-05-30T10:57:39.398Z,22752.00
2019-05-30T10:58:35.898Z,23296.00
2019-05-30T10:59:51.049Z,25152.00
2019-05-30T11:00:35.191Z,25248.00
2019-05-30T11:01:36.333Z,27744.00
2019-05-30T11:02:35.465Z,31584.00
2019-05-30T11:03:37.444Z,34304.00
2019-05-30T11:04:36.481Z,40448.00
2019-05-30T11:05:36.014Z,41376.00
2019-05-30T11:07:04.927Z,43584.00
2019-05-30T11:07:52.866Z,40704.00
2019-05-30T11:08:37.401Z,39296.00
2019-05-30T11:09:38.489Z,37920.00
2019-05-30T11:10:40.449Z,37344.00
2019-05-30T11:11:52.947Z,35712.00
2019-05-30T11:12:37.211Z,33536.00
2019-05-30T11:13:39.711Z,30432.00
2019-05-30T11:14:43.471Z,28256.00
2019-05-30T11:15:51.616Z,26880.00
2019-05-30T11:16:40.922Z,26240.00
2019-05-30T11:17:39.966Z,25280.00
2019-05-30T11:18:45.947Z,25376.00
2019-05-30T11:19:51.770Z,26304.00
2019-05-30T11:20:38.557Z,28832.00
2019-05-30T11:21:43.249Z,29696.00
2019-05-30T11:22:39.036Z,28768.00
2019-05-30T11:23:39.947Z,26624.00
2019-05-30T11:24:43.956Z,25184.00
2019-05-30T11:25:40.949Z,24832.00
2019-05-30T11:26:48.775Z,26560.00
2019-05-30T11:27:41.458Z,29312.00
2019-05-30T11:28:40.047Z,30208.00
2019-05-30T11:29:44.017Z,30240.00
2019-05-30T11:30:42.988Z,30944.00
2019-05-30T11:31:42.458Z,30272.00
2019-05-30T11:32:43.437Z,29472.00
2019-05-30T11:34:03.967Z,29120.00
2019-05-30T11:35:03.993Z,28512.00
2019-05-30T11:37:18.305Z,27360.00
2019-05-30T11:37:43.505Z,28352.00
2019-05-30T11:38:41.971Z,27776.00
2019-05-30T11:39:43.181Z,27392.00
2019-05-30T11:41:05.017Z,27264.00
2019-05-30T11:41:42.605Z,26912.00
2019-05-30T11:42:44.481Z,26336.00
2019-05-30T11:43:59.671Z,26400.00
2019-05-30T11:44:51.421Z,26592.00
2019-05-30T11:45:45.330Z,26112.00
2019-05-30T11:46:43.639Z,25088.00
2019-05-30T11:47:46.952Z,24384.00
2019-05-30T11:48:43.952Z,23936.00
2019-05-30T11:49:44.181Z,23360.00
2019-05-30T11:50:46.012Z,22848.00
2019-05-30T11:51:45.644Z,22400.00
2019-05-30T11:52:53.685Z,21664.00
2019-05-30T11:53:45.017Z,20704.00
2019-05-30T11:54:49.851Z,19648.00
2019-05-30T11:55:47.463Z,19168.00
2019-05-30T11:56:47.723Z,19168.00
2019-05-30T11:57:47.454Z,18976.00
2019-05-30T11:58:47.954Z,18304.00
2019-05-30T11:59:50.327Z,17856.00
2019-05-30T12:00:47.969Z,17632.00
2019-05-30T12:01:50.501Z,17664.00
2019-05-30T12:02:46.748Z,17792.00
2019-05-30T12:03:54.529Z,17856.00
2019-05-30T12:06:19.227Z,18432.00
2019-05-30T12:07:36.259Z,18272.00
2019-05-30T12:08:26.231Z,17824.00
2019-05-30T12:09:19.588Z,17344.00
2019-05-30T12:10:21.217Z,16800.00
2019-05-30T12:11:32.726Z,16608.00
2019-05-30T12:12:23.839Z,16608.00
2019-05-30T12:13:24.217Z,16576.00
2019-05-30T12:14:25.240Z,16704.00
2019-05-30T12:15:22.665Z,17024.00
2019-05-30T12:16:22.715Z,17376.00
2019-05-30T12:17:22.755Z,17568.00
2019-05-30T12:18:58.216Z,17504.00
2019-05-30T12:19:21.445Z,17376.00
2019-05-30T12:20:23.222Z,17184.00